This is the latest recevied weather packets stored in our database for station/object WD7OO. If no packets are shown the sender has not sent any weather packets the latest 10 day(s).
| Time | Temp. | Humidity | Pressure | Rain* | Wind** | Luminosity | Snow |
|---|---|---|---|---|---|---|---|
| 1787876375 | 20° C | 81% | 1016.9 hPa | 0 mm | - | 4 W/m² | - |
| 1787876073 | 20.56° C | 81% | 1016.9 hPa | 0 mm | - | 6 W/m² | - |
| 1787875768 | 20.56° C | 80% | 1017 hPa | 0 mm | - | 9 W/m² | - |
| 1787875467 | 21.11° C | 79% | 1017 hPa | 0 mm | - | 12 W/m² | - |
| 1787875160 | 21.11° C | 78% | 1017.1 hPa | 0 mm | - | 15 W/m² | - |
| 1787874855 | 21.67° C | 77% | 1016.9 hPa | 0 mm | - | 18 W/m² | - |
| 1787874554 | 21.67° C | 75% | 1016.9 hPa | 0 mm | - | 21 W/m² | - |
| 1787874249 | 22.22° C | 73% | 1017 hPa | 0 mm | - | 23 W/m² | - |
| 1787873949 | 22.78° C | 73% | 1016.9 hPa | 0 mm | - | 26 W/m² | - |
| 1787873643 | 22.78° C | 71% | 1016.9 hPa | 0 mm | - | 29 W/m² | - |
| 1787873338 | 22.78° C | 70% | 1016.9 hPa | 0 mm | - | 33 W/m² | - |
| 1787873037 | 23.33° C | 69% | 1016.7 hPa | 0 mm | - | 33 W/m² | - |
| 1787872733 | 23.33° C | 70% | 1016.9 hPa | 0 mm | - | 35 W/m² | - |
| 1787872428 | 23.33° C | 69% | 1016.9 hPa | 0 mm | - | 41 W/m² | - |
| 1787872123 | 23.89° C | 69% | 1016.7 hPa | 0 mm | - | 44 W/m² | - |
| 1787871822 | 23.89° C | 68% | 1016.9 hPa | 0 mm | - | 40 W/m² | - |
| 1787871517 | 23.89° C | 68% | 1016.8 hPa | 0 mm | - | 42 W/m² | - |
| 1787871212 | 23.89° C | 65% | 1016.8 hPa | 0 mm | - | 43 W/m² | - |
| 1787870907 | 23.89° C | 65% | 1016.7 hPa | 0 mm | - | 65 W/m² | - |
| 1787870602 | 24.44° C | 64% | 1016.8 hPa | 0 mm | - | 48 W/m² | - |
| 1787870297 | 24.44° C | 62% | 1016.9 hPa | 0 mm | - | 50 W/m² | - |
| 1787869992 | 25° C | 63% | 1017 hPa | 0 mm | - | 64 W/m² | - |
| 1787869692 | 25° C | 62% | 1016.8 hPa | 0 mm | - | 77 W/m² | - |
| 1787869391 | 25.56° C | 59% | 1016.8 hPa | 0 mm | - | 73 W/m² | - |
| 1787869085 | 25.56° C | 61% | 1016.8 hPa | 0 mm | - | 218 W/m² | - |
* Rain latest hour (hover to see other rain measurements)
** Current wind speed in m/s (hover to see current wind gust speed)